Groveville, New Jersey
Current Conditions -  °F | °C
As of 7:58 PM on Monday 20 Oct 2014 (Local Time) from KWRI Reporting Station
Few Clouds Few Clouds  
Wind Chill: 46°   Ceiling: Unl
Heat Index: 48°   Visibility: 10mi
Dew Point: 42°   Wind: 6mph
Humidity: 79%   Direction: 170°S
Pressure: 29.97"   Gusts: NA
Location:  40.1542°N, 74.6404°W
Report Text: KWRI 202358Z AUTO 17005KT 10SM FEW190 09/06 A2997 RMK AO2 SLP153 T00910057 10168 20090 53001
Loading
Personal Weather Stations






























Interactive Weather Map
Tropical Storm Tracking
New forecast layout! Learn more

10-Day Weather Forecast

Advertisements
Track Severe Weather on mobile